sensor_id;sensor_type;location;lat;lon;timestamp;temperature;humidity
12223;DHT22;6174;49.058;8.524;2023-06-04T06:01:35;17.10;70.50
12223;DHT22;6174;49.058;8.524;2023-06-04T06:04:02;17.30;69.60
12223;DHT22;6174;49.058;8.524;2023-06-04T06:06:28;17.50;70.90
12223;DHT22;6174;49.058;8.524;2023-06-04T06:08:55;17.50;69.20
12223;DHT22;6174;49.058;8.524;2023-06-04T06:11:23;17.70;68.60
12223;DHT22;6174;49.058;8.524;2023-06-04T06:13:52;17.70;69.00
12223;DHT22;6174;49.058;8.524;2023-06-04T06:16:19;18.00;70.50
12223;DHT22;6174;49.058;8.524;2023-06-04T06:18:47;18.10;68.50
12223;DHT22;6174;49.058;8.524;2023-06-04T06:21:14;18.40;68.30
12223;DHT22;6174;49.058;8.524;2023-06-04T06:23:41;18.60;67.40
12223;DHT22;6174;49.058;8.524;2023-06-04T06:26:08;18.70;65.70
12223;DHT22;6174;49.058;8.524;2023-06-04T06:28:35;19.00;65.30
12223;DHT22;6174;49.058;8.524;2023-06-04T06:31:02;19.20;65.50
12223;DHT22;6174;49.058;8.524;2023-06-04T06:33:29;19.50;64.60
12223;DHT22;6174;49.058;8.524;2023-06-04T06:35:58;19.60;62.70
12223;DHT22;6174;49.058;8.524;2023-06-04T06:38:25;19.70;63.50
12223;DHT22;6174;49.058;8.524;2023-06-04T06:40:52;20.00;64.20
12223;DHT22;6174;49.058;8.524;2023-06-04T06:43:19;20.30;62.70
12223;DHT22;6174;49.058;8.524;2023-06-04T06:45:45;20.60;61.80
12223;DHT22;6174;49.058;8.524;2023-06-04T06:48:12;20.60;61.60
12223;DHT22;6174;49.058;8.524;2023-06-04T06:50:39;20.90;61.50
12223;DHT22;6174;49.058;8.524;2023-06-04T06:53:07;21.00;59.10
12223;DHT22;6174;49.058;8.524;2023-06-04T06:55:34;21.20;59.30
12223;DHT22;6174;49.058;8.524;2023-06-04T06:58:00;21.40;59.60
12223;DHT22;6174;49.058;8.524;2023-06-04T07:00:27;21.50;61.00
12223;DHT22;6174;49.058;8.524;2023-06-04T07:02:54;21.90;59.50
12223;DHT22;6174;49.058;8.524;2023-06-04T07:05:21;21.90;58.80
12223;DHT22;6174;49.058;8.524;2023-06-04T07:07:47;21.90;57.90
12223;DHT22;6174;49.058;8.524;2023-06-04T07:10:16;21.90;59.00
12223;DHT22;6174;49.058;8.524;2023-06-04T07:12:42;22.10;59.20
12223;DHT22;6174;49.058;8.524;2023-06-04T07:15:09;22.30;57.90
12223;DHT22;6174;49.058;8.524;2023-06-04T07:17:36;22.30;56.70
12223;DHT22;6174;49.058;8.524;2023-06-04T07:20:03;22.40;56.70
12223;DHT22;6174;49.058;8.524;2023-06-04T07:22:32;22.10;57.90
12223;DHT22;6174;49.058;8.524;2023-06-04T07:25:00;22.20;57.30
12223;DHT22;6174;49.058;8.524;2023-06-04T07:27:28;22.50;57.60
12223;DHT22;6174;49.058;8.524;2023-06-04T07:29:54;22.60;57.30
12223;DHT22;6174;49.058;8.524;2023-06-04T07:32:21;23.00;56.50
12223;DHT22;6174;49.058;8.524;2023-06-04T07:34:48;23.10;57.50
12223;DHT22;6174;49.058;8.524;2023-06-04T07:37:15;23.20;58.20
12223;DHT22;6174;49.058;8.524;2023-06-04T07:39:41;23.30;57.00
12223;DHT22;6174;49.058;8.524;2023-06-04T07:42:08;23.20;55.70
12223;DHT22;6174;49.058;8.524;2023-06-04T07:44:37;23.20;56.40
12223;DHT22;6174;49.058;8.524;2023-06-04T07:47:04;23.20;56.70
12223;DHT22;6174;49.058;8.524;2023-06-04T07:49:31;23.00;56.70
12223;DHT22;6174;49.058;8.524;2023-06-04T07:51:57;22.90;56.90
12223;DHT22;6174;49.058;8.524;2023-06-04T07:54:24;23.10;57.50
12223;DHT22;6174;49.058;8.524;2023-06-04T07:56:51;22.90;55.80
12223;DHT22;6174;49.058;8.524;2023-06-04T07:59:21;23.00;57.90
12223;DHT22;6174;49.058;8.524;2023-06-04T08:01:49;23.10;58.10
12223;DHT22;6174;49.058;8.524;2023-06-04T08:04:16;23.00;56.60
12223;DHT22;6174;49.058;8.524;2023-06-04T08:06:43;23.20;56.90
12223;DHT22;6174;49.058;8.524;2023-06-04T08:09:10;23.00;55.70
12223;DHT22;6174;49.058;8.524;2023-06-04T08:11:40;23.00;56.40
12223;DHT22;6174;49.058;8.524;2023-06-04T08:14:07;23.00;57.80
12223;DHT22;6174;49.058;8.524;2023-06-04T08:16:34;23.10;57.80
12223;DHT22;6174;49.058;8.524;2023-06-04T08:19:02;23.10;57.20
12223;DHT22;6174;49.058;8.524;2023-06-04T08:21:29;23.10;57.20
12223;DHT22;6174;49.058;8.524;2023-06-04T08:23:56;23.20;55.80
12223;DHT22;6174;49.058;8.524;2023-06-04T08:26:24;22.70;56.90
12223;DHT22;6174;49.058;8.524;2023-06-04T08:28:52;22.50;59.00
12223;DHT22;6174;49.058;8.524;2023-06-04T08:31:19;22.30;59.30
12223;DHT22;6174;49.058;8.524;2023-06-04T08:33:46;22.20;60.20
12223;DHT22;6174;49.058;8.524;2023-06-04T08:36:14;22.10;61.30
12223;DHT22;6174;49.058;8.524;2023-06-04T08:38:41;21.90;60.30
12223;DHT22;6174;49.058;8.524;2023-06-04T08:41:13;21.90;61.00
12223;DHT22;6174;49.058;8.524;2023-06-04T08:43:42;21.70;63.20
12223;DHT22;6174;49.058;8.524;2023-06-04T08:46:10;21.80;65.00
12223;DHT22;6174;49.058;8.524;2023-06-04T08:48:38;21.90;64.10
12223;DHT22;6174;49.058;8.524;2023-06-04T08:51:06;22.00;62.60
12223;DHT22;6174;49.058;8.524;2023-06-04T08:53:36;21.90;63.00
12223;DHT22;6174;49.058;8.524;2023-06-04T08:56:03;21.80;62.60
12223;DHT22;6174;49.058;8.524;2023-06-04T08:58:31;21.70;64.20
12223;DHT22;6174;49.058;8.524;2023-06-04T09:01:00;21.60;63.50
12223;DHT22;6174;49.058;8.524;2023-06-04T09:03:28;21.60;64.30
12223;DHT22;6174;49.058;8.524;2023-06-04T09:05:55;21.70;64.70
12223;DHT22;6174;49.058;8.524;2023-06-04T09:08:23;21.80;64.80
12223;DHT22;6174;49.058;8.524;2023-06-04T09:10:53;21.90;64.80
12223;DHT22;6174;49.058;8.524;2023-06-04T09:13:22;22.00;66.00
12223;DHT22;6174;49.058;8.524;2023-06-04T09:15:59;22.00;64.10
12223;DHT22;6174;49.058;8.524;2023-06-04T09:18:26;21.90;62.90
12223;DHT22;6174;49.058;8.524;2023-06-04T09:21:01;21.90;64.80
12223;DHT22;6174;49.058;8.524;2023-06-04T09:23:27;22.00;66.00
12223;DHT22;6174;49.058;8.524;2023-06-04T09:26:05;22.20;64.60
12223;DHT22;6174;49.058;8.524;2023-06-04T09:28:32;22.20;66.10
12223;DHT22;6174;49.058;8.524;2023-06-04T09:30:58;22.30;65.20
12223;DHT22;6174;49.058;8.524;2023-06-04T09:33:25;22.40;65.30
12223;DHT22;6174;49.058;8.524;2023-06-04T09:35:53;22.50;67.10
12223;DHT22;6174;49.058;8.524;2023-06-04T09:38:20;22.60;65.80
12223;DHT22;6174;49.058;8.524;2023-06-04T09:40:47;22.50;63.10
12223;DHT22;6174;49.058;8.524;2023-06-04T09:43:22;22.50;63.10
12223;DHT22;6174;49.058;8.524;2023-06-04T09:45:49;22.60;62.20
12223;DHT22;6174;49.058;8.524;2023-06-04T09:48:20;22.70;63.70
12223;DHT22;6174;49.058;8.524;2023-06-04T09:50:47;22.80;62.80
12223;DHT22;6174;49.058;8.524;2023-06-04T09:53:15;22.90;62.50
12223;DHT22;6174;49.058;8.524;2023-06-04T09:55:42;22.90;61.20
12223;DHT22;6174;49.058;8.524;2023-06-04T09:58:10;22.90;60.70
12223;DHT22;6174;49.058;8.524;2023-06-04T10:00:39;23.00;61.30
12223;DHT22;6174;49.058;8.524;2023-06-04T10:03:07;23.00;58.80
12223;DHT22;6174;49.058;8.524;2023-06-04T10:05:38;23.00;57.60
12223;DHT22;6174;49.058;8.524;2023-06-04T10:08:05;23.00;58.60
12223;DHT22;6174;49.058;8.524;2023-06-04T10:10:35;23.10;58.40
12223;DHT22;6174;49.058;8.524;2023-06-04T10:13:05;23.20;58.60
12223;DHT22;6174;49.058;8.524;2023-06-04T10:15:34;23.30;56.70
12223;DHT22;6174;49.058;8.524;2023-06-04T10:18:03;23.30;55.70
12223;DHT22;6174;49.058;8.524;2023-06-04T10:20:31;23.40;57.80
12223;DHT22;6174;49.058;8.524;2023-06-04T10:22:58;23.40;55.30
12223;DHT22;6174;49.058;8.524;2023-06-04T10:25:28;23.50;54.00
12223;DHT22;6174;49.058;8.524;2023-06-04T10:27:56;23.50;54.50
12223;DHT22;6174;49.058;8.524;2023-06-04T10:30:23;23.40;53.20
12223;DHT22;6174;49.058;8.524;2023-06-04T10:32:50;23.50;55.50
12223;DHT22;6174;49.058;8.524;2023-06-04T10:35:29;23.60;54.90
12223;DHT22;6174;49.058;8.524;2023-06-04T10:38:05;23.60;54.60
12223;DHT22;6174;49.058;8.524;2023-06-04T10:40:32;23.60;53.00
12223;DHT22;6174;49.058;8.524;2023-06-04T10:43:04;23.70;53.50
12223;DHT22;6174;49.058;8.524;2023-06-04T10:45:32;23.60;51.60
12223;DHT22;6174;49.058;8.524;2023-06-04T10:48:02;23.70;54.30
12223;DHT22;6174;49.058;8.524;2023-06-04T10:50:32;23.70;53.80
12223;DHT22;6174;49.058;8.524;2023-06-04T10:52:59;23.80;54.10
12223;DHT22;6174;49.058;8.524;2023-06-04T10:55:28;23.90;53.70
12223;DHT22;6174;49.058;8.524;2023-06-04T10:57:57;23.90;51.30
12223;DHT22;6174;49.058;8.524;2023-06-04T11:00:34;23.90;50.80
12223;DHT22;6174;49.058;8.524;2023-06-04T11:03:01;23.80;52.60
12223;DHT22;6174;49.058;8.524;2023-06-04T11:05:35;23.80;53.10
12223;DHT22;6174;49.058;8.524;2023-06-04T11:08:02;23.90;53.60
12223;DHT22;6174;49.058;8.524;2023-06-04T11:10:32;24.00;52.40
12223;DHT22;6174;49.058;8.524;2023-06-04T11:13:01;24.00;52.10
12223;DHT22;6174;49.058;8.524;2023-06-04T11:15:38;24.00;51.80
12223;DHT22;6174;49.058;8.524;2023-06-04T11:18:05;24.00;52.60
12223;DHT22;6174;49.058;8.524;2023-06-04T11:20:31;24.00;50.30
12223;DHT22;6174;49.058;8.524;2023-06-04T11:23:00;24.00;53.30
12223;DHT22;6174;49.058;8.524;2023-06-04T11:25:29;24.00;52.30
12223;DHT22;6174;49.058;8.524;2023-06-04T11:27:56;24.10;51.30
12223;DHT22;6174;49.058;8.524;2023-06-04T11:30:24;24.10;52.60
12223;DHT22;6174;49.058;8.524;2023-06-04T11:33:00;24.20;53.10
12223;DHT22;6174;49.058;8.524;2023-06-04T11:35:27;24.20;50.00
12223;DHT22;6174;49.058;8.524;2023-06-04T11:37:54;24.20;51.20
12223;DHT22;6174;49.058;8.524;2023-06-04T11:40:23;24.20;52.60
12223;DHT22;6174;49.058;8.524;2023-06-04T11:42:52;24.30;51.80
12223;DHT22;6174;49.058;8.524;2023-06-04T11:45:19;24.30;50.20
12223;DHT22;6174;49.058;8.524;2023-06-04T11:47:48;24.30;51.30
12223;DHT22;6174;49.058;8.524;2023-06-04T11:50:15;24.30;49.50
12223;DHT22;6174;49.058;8.524;2023-06-04T11:52:42;24.40;50.30
12223;DHT22;6174;49.058;8.524;2023-06-04T11:55:09;24.30;49.90
12223;DHT22;6174;49.058;8.524;2023-06-04T11:57:38;24.30;51.10
12223;DHT22;6174;49.058;8.524;2023-06-04T12:00:06;24.40;49.90
12223;DHT22;6174;49.058;8.524;2023-06-04T12:02:35;24.40;50.10
12223;DHT22;6174;49.058;8.524;2023-06-04T12:05:11;24.40;50.30
12223;DHT22;6174;49.058;8.524;2023-06-04T12:07:38;24.50;50.40
12223;DHT22;6174;49.058;8.524;2023-06-04T12:10:06;24.50;51.60
12223;DHT22;6174;49.058;8.524;2023-06-04T12:12:33;24.50;52.60
12223;DHT22;6174;49.058;8.524;2023-06-04T12:15:01;24.60;51.50
12223;DHT22;6174;49.058;8.524;2023-06-04T12:21:29;24.60;52.40
12223;DHT22;6174;49.058;8.524;2023-06-04T12:29:34;24.80;51.10
12223;DHT22;6174;49.058;8.524;2023-06-04T12:37:55;24.60;51.60
12223;DHT22;6174;49.058;8.524;2023-06-04T12:40:46;24.60;51.60
12223;DHT22;6174;49.058;8.524;2023-06-04T12:44:19;24.60;52.40
12223;DHT22;6174;49.058;8.524;2023-06-04T12:46:50;24.60;51.80
12223;DHT22;6174;49.058;8.524;2023-06-04T12:49:44;24.70;53.20
12223;DHT22;6174;49.058;8.524;2023-06-04T12:52:25;24.70;50.50
12223;DHT22;6174;49.058;8.524;2023-06-04T12:55:07;24.70;52.50
12223;DHT22;6174;49.058;8.524;2023-06-04T13:00:36;24.70;52.90
12223;DHT22;6174;49.058;8.524;2023-06-04T13:03:54;24.70;51.00
12223;DHT22;6174;49.058;8.524;2023-06-04T13:10:00;24.60;52.70
12223;DHT22;6174;49.058;8.524;2023-06-04T13:22:27;24.80;53.40
12223;DHT22;6174;49.058;8.524;2023-06-04T13:28:46;24.80;51.20
12223;DHT22;6174;49.058;8.524;2023-06-04T13:31:13;24.60;51.40
12223;DHT22;6174;49.058;8.524;2023-06-04T13:33:39;24.60;51.80
12223;DHT22;6174;49.058;8.524;2023-06-04T13:36:07;24.60;50.00
12223;DHT22;6174;49.058;8.524;2023-06-04T13:38:35;24.70;51.30
12223;DHT22;6174;49.058;8.524;2023-06-04T13:41:05;24.80;50.90
12223;DHT22;6174;49.058;8.524;2023-06-04T13:43:32;24.80;50.80
12223;DHT22;6174;49.058;8.524;2023-06-04T13:45:59;24.70;49.90
12223;DHT22;6174;49.058;8.524;2023-06-04T13:48:25;24.70;50.30
12223;DHT22;6174;49.058;8.524;2023-06-04T13:50:52;24.70;51.40
12223;DHT22;6174;49.058;8.524;2023-06-04T13:53:19;24.70;49.50
12223;DHT22;6174;49.058;8.524;2023-06-04T13:55:47;24.80;48.50
12223;DHT22;6174;49.058;8.524;2023-06-04T13:58:14;24.80;48.30
12223;DHT22;6174;49.058;8.524;2023-06-04T14:00:41;24.40;48.70
12223;DHT22;6174;49.058;8.524;2023-06-04T14:03:08;24.90;49.60
12223;DHT22;6174;49.058;8.524;2023-06-04T14:05:35;24.90;47.20
12223;DHT22;6174;49.058;8.524;2023-06-04T14:08:01;24.80;47.80
12223;DHT22;6174;49.058;8.524;2023-06-04T14:10:29;24.90;48.90
12223;DHT22;6174;49.058;8.524;2023-06-04T14:12:57;24.90;50.10
12223;DHT22;6174;49.058;8.524;2023-06-04T14:15:27;25.20;48.20
12223;DHT22;6174;49.058;8.524;2023-06-04T14:17:54;24.90;47.20
12223;DHT22;6174;49.058;8.524;2023-06-04T14:20:28;24.80;47.40
12223;DHT22;6174;49.058;8.524;2023-06-04T14:22:55;24.70;44.80
12223;DHT22;6174;49.058;8.524;2023-06-04T14:25:22;24.60;44.50
12223;DHT22;6174;49.058;8.524;2023-06-04T14:27:52;24.60;46.60
12223;DHT22;6174;49.058;8.524;2023-06-04T14:30:20;24.70;47.00
12223;DHT22;6174;49.058;8.524;2023-06-04T14:32:47;24.60;47.20
12223;DHT22;6174;49.058;8.524;2023-06-04T14:35:14;24.60;46.10
12223;DHT22;6174;49.058;8.524;2023-06-04T14:37:40;24.60;45.90
12223;DHT22;6174;49.058;8.524;2023-06-04T14:40:08;24.60;46.00
12223;DHT22;6174;49.058;8.524;2023-06-04T14:42:35;24.60;46.90
12223;DHT22;6174;49.058;8.524;2023-06-04T14:45:03;24.70;46.30
12223;DHT22;6174;49.058;8.524;2023-06-04T14:47:32;24.70;45.60
12223;DHT22;6174;49.058;8.524;2023-06-04T14:49:58;24.60;45.20
12223;DHT22;6174;49.058;8.524;2023-06-04T14:52:25;24.60;45.60
12223;DHT22;6174;49.058;8.524;2023-06-04T14:54:53;24.60;44.30
12223;DHT22;6174;49.058;8.524;2023-06-04T14:57:20;24.60;46.70
12223;DHT22;6174;49.058;8.524;2023-06-04T14:59:48;24.40;44.90
12223;DHT22;6174;49.058;8.524;2023-06-04T15:02:15;24.80;46.40
12223;DHT22;6174;49.058;8.524;2023-06-04T15:04:46;24.70;46.80
12223;DHT22;6174;49.058;8.524;2023-06-04T15:07:13;24.70;45.60
12223;DHT22;6174;49.058;8.524;2023-06-04T15:09:39;24.70;46.00
12223;DHT22;6174;49.058;8.524;2023-06-04T15:12:06;24.60;44.60
12223;DHT22;6174;49.058;8.524;2023-06-04T15:14:33;24.50;44.30
12223;DHT22;6174;49.058;8.524;2023-06-04T15:17:00;24.50;44.50
12223;DHT22;6174;49.058;8.524;2023-06-04T15:19:27;24.50;43.60
12223;DHT22;6174;49.058;8.524;2023-06-04T15:21:55;24.40;46.00
12223;DHT22;6174;49.058;8.524;2023-06-04T15:24:22;24.40;45.30
12223;DHT22;6174;49.058;8.524;2023-06-04T15:26:49;24.80;46.20
12223;DHT22;6174;49.058;8.524;2023-06-04T15:29:16;24.40;44.60
12223;DHT22;6174;49.058;8.524;2023-06-04T15:31:42;24.40;45.20
12223;DHT22;6174;49.058;8.524;2023-06-04T15:34:09;24.40;45.80
12223;DHT22;6174;49.058;8.524;2023-06-04T15:36:36;24.50;45.70
12223;DHT22;6174;49.058;8.524;2023-06-04T15:39:05;24.60;45.10
12223;DHT22;6174;49.058;8.524;2023-06-04T15:41:32;24.60;45.90
12223;DHT22;6174;49.058;8.524;2023-06-04T15:43:58;24.60;46.50
12223;DHT22;6174;49.058;8.524;2023-06-04T15:46:25;24.50;44.80
12223;DHT22;6174;49.058;8.524;2023-06-04T15:48:52;24.40;43.90
12223;DHT22;6174;49.058;8.524;2023-06-04T15:51:19;24.40;45.20
12223;DHT22;6174;49.058;8.524;2023-06-04T15:53:45;24.40;44.40
12223;DHT22;6174;49.058;8.524;2023-06-04T15:56:14;24.30;45.00
12223;DHT22;6174;49.058;8.524;2023-06-04T15:58:41;24.30;44.60
12223;DHT22;6174;49.058;8.524;2023-06-04T16:01:08;24.10;45.80
12223;DHT22;6174;49.058;8.524;2023-06-04T16:03:35;24.30;45.70
12223;DHT22;6174;49.058;8.524;2023-06-04T16:06:02;24.40;46.30
12223;DHT22;6174;49.058;8.524;2023-06-04T16:08:29;24.30;46.90
12223;DHT22;6174;49.058;8.524;2023-06-04T16:10:56;24.30;45.50
12223;DHT22;6174;49.058;8.524;2023-06-04T16:13:24;24.40;45.30
12223;DHT22;6174;49.058;8.524;2023-06-04T16:15:52;24.40;46.00
12223;DHT22;6174;49.058;8.524;2023-06-04T16:18:18;24.30;46.10
12223;DHT22;6174;49.058;8.524;2023-06-04T16:20:45;24.00;45.90
12223;DHT22;6174;49.058;8.524;2023-06-04T16:23:12;24.30;46.50
12223;DHT22;6174;49.058;8.524;2023-06-04T16:25:39;24.30;46.50
12223;DHT22;6174;49.058;8.524;2023-06-04T16:28:06;24.30;46.50
12223;DHT22;6174;49.058;8.524;2023-06-04T16:30:34;24.20;45.90
12223;DHT22;6174;49.058;8.524;2023-06-04T16:33:01;24.20;45.90
12223;DHT22;6174;49.058;8.524;2023-06-04T16:35:28;24.10;44.80
12223;DHT22;6174;49.058;8.524;2023-06-04T16:37:55;24.10;43.80
12223;DHT22;6174;49.058;8.524;2023-06-04T16:40:21;24.10;42.90
12223;DHT22;6174;49.058;8.524;2023-06-04T16:42:48;24.10;44.80
12223;DHT22;6174;49.058;8.524;2023-06-04T16:45:16;24.10;43.70
12223;DHT22;6174;49.058;8.524;2023-06-04T16:47:44;24.10;43.40
12223;DHT22;6174;49.058;8.524;2023-06-04T16:50:11;24.00;43.70
12223;DHT22;6174;49.058;8.524;2023-06-04T16:52:38;24.00;44.30
12223;DHT22;6174;49.058;8.524;2023-06-04T16:55:06;24.10;43.60
12223;DHT22;6174;49.058;8.524;2023-06-04T16:57:33;24.00;45.20
12223;DHT22;6174;49.058;8.524;2023-06-04T17:00:00;24.00;44.20
12223;DHT22;6174;49.058;8.524;2023-06-04T17:02:27;24.00;46.10
12223;DHT22;6174;49.058;8.524;2023-06-04T17:04:55;24.10;45.60
12223;DHT22;6174;49.058;8.524;2023-06-04T17:07:22;24.00;44.50
12223;DHT22;6174;49.058;8.524;2023-06-04T17:09:49;24.10;46.20
12223;DHT22;6174;49.058;8.524;2023-06-04T17:12:16;24.00;46.10
12223;DHT22;6174;49.058;8.524;2023-06-04T17:14:43;24.10;46.40
12223;DHT22;6174;49.058;8.524;2023-06-04T17:17:10;24.10;45.70
12223;DHT22;6174;49.058;8.524;2023-06-04T17:19:37;24.20;45.00
12223;DHT22;6174;49.058;8.524;2023-06-04T17:22:06;24.20;46.10
12223;DHT22;6174;49.058;8.524;2023-06-04T17:24:33;24.20;44.70
12223;DHT22;6174;49.058;8.524;2023-06-04T17:26:59;24.10;45.20
12223;DHT22;6174;49.058;8.524;2023-06-04T17:29:26;24.00;45.50
12223;DHT22;6174;49.058;8.524;2023-06-04T17:31:53;24.00;46.30
12223;DHT22;6174;49.058;8.524;2023-06-04T17:34:20;24.00;47.50
12223;DHT22;6174;49.058;8.524;2023-06-04T17:36:46;24.00;47.80
12223;DHT22;6174;49.058;8.524;2023-06-04T17:39:15;23.90;48.70
12223;DHT22;6174;49.058;8.524;2023-06-04T17:41:41;23.90;48.20
12223;DHT22;6174;49.058;8.524;2023-06-04T17:44:08;23.90;46.60
12223;DHT22;6174;49.058;8.524;2023-06-04T17:46:35;23.90;47.10
12223;DHT22;6174;49.058;8.524;2023-06-04T17:49:02;23.90;47.10
12223;DHT22;6174;49.058;8.524;2023-06-04T17:51:35;23.90;47.10
12223;DHT22;6174;49.058;8.524;2023-06-04T17:54:02;24.10;46.80
12223;DHT22;6174;49.058;8.524;2023-06-04T17:56:30;23.90;46.80
12223;DHT22;6174;49.058;8.524;2023-06-04T17:58:57;23.90;47.20
12223;DHT22;6174;49.058;8.524;2023-06-04T18:01:23;23.90;46.10
12223;DHT22;6174;49.058;8.524;2023-06-04T18:03:50;24.00;45.40
12223;DHT22;6174;49.058;8.524;2023-06-04T18:06:17;24.00;45.80
12223;DHT22;6174;49.058;8.524;2023-06-04T18:08:44;24.10;46.10
12223;DHT22;6174;49.058;8.524;2023-06-04T18:11:11;24.10;45.60
12223;DHT22;6174;49.058;8.524;2023-06-04T18:13:39;24.10;46.20
12223;DHT22;6174;49.058;8.524;2023-06-04T18:16:06;24.10;47.00
12223;DHT22;6174;49.058;8.524;2023-06-04T18:18:36;24.10;47.00
12223;DHT22;6174;49.058;8.524;2023-06-04T18:21:03;24.00;46.20
12223;DHT22;6174;49.058;8.524;2023-06-04T18:23:29;23.90;47.60
12223;DHT22;6174;49.058;8.524;2023-06-04T18:25:56;23.80;48.00
12223;DHT22;6174;49.058;8.524;2023-06-04T18:28:24;23.60;48.40
12223;DHT22;6174;49.058;8.524;2023-06-04T18:30:53;23.50;48.80
12223;DHT22;6174;49.058;8.524;2023-06-04T18:33:22;23.40;48.60
12223;DHT22;6174;49.058;8.524;2023-06-04T18:35:49;23.30;48.40
12223;DHT22;6174;49.058;8.524;2023-06-04T18:38:16;23.30;48.70
12223;DHT22;6174;49.058;8.524;2023-06-04T18:40:42;23.20;48.70
12223;DHT22;6174;49.058;8.524;2023-06-04T18:43:09;23.20;48.80
12223;DHT22;6174;49.058;8.524;2023-06-04T18:45:36;23.10;48.50
12223;DHT22;6174;49.058;8.524;2023-06-04T18:48:04;23.00;48.90
12223;DHT22;6174;49.058;8.524;2023-06-04T18:50:32;22.90;49.40
12223;DHT22;6174;49.058;8.524;2023-06-04T18:52:58;22.80;49.60
12223;DHT22;6174;49.058;8.524;2023-06-04T18:55:27;22.70;49.90
12223;DHT22;6174;49.058;8.524;2023-06-04T18:57:53;22.60;50.30
12223;DHT22;6174;49.058;8.524;2023-06-04T19:00:20;22.50;50.70
12223;DHT22;6174;49.058;8.524;2023-06-04T19:02:47;22.40;50.80
12223;DHT22;6174;49.058;8.524;2023-06-04T19:05:15;22.20;51.20
12223;DHT22;6174;49.058;8.524;2023-06-04T19:07:42;22.10;51.70
12223;DHT22;6174;49.058;8.524;2023-06-04T19:10:10;22.00;51.70
12223;DHT22;6174;49.058;8.524;2023-06-04T19:12:37;21.90;52.20
12223;DHT22;6174;49.058;8.524;2023-06-04T19:15:06;21.90;52.70
12223;DHT22;6174;49.058;8.524;2023-06-04T19:17:33;21.80;52.50
12223;DHT22;6174;49.058;8.524;2023-06-04T19:20:00;21.70;52.70
12223;DHT22;6174;49.058;8.524;2023-06-04T19:22:28;21.60;53.00
12223;DHT22;6174;49.058;8.524;2023-06-04T19:24:55;21.50;53.40
12223;DHT22;6174;49.058;8.524;2023-06-04T19:27:21;21.40;53.40
12223;DHT22;6174;49.058;8.524;2023-06-04T19:29:48;21.30;53.90
12223;DHT22;6174;49.058;8.524;2023-06-04T19:32:15;21.20;54.00
12223;DHT22;6174;49.058;8.524;2023-06-04T19:34:42;21.20;54.90
12223;DHT22;6174;49.058;8.524;2023-06-04T19:37:08;21.10;55.80
12223;DHT22;6174;49.058;8.524;2023-06-04T19:39:36;21.00;55.80
12223;DHT22;6174;49.058;8.524;2023-06-04T19:42:03;20.90;56.00
12223;DHT22;6174;49.058;8.524;2023-06-04T19:44:30;20.80;56.60
12223;DHT22;6174;49.058;8.524;2023-06-04T19:46:57;20.70;57.20
12223;DHT22;6174;49.058;8.524;2023-06-04T19:49:24;20.60;57.80
12223;DHT22;6174;49.058;8.524;2023-06-04T19:51:51;20.50;58.90
12223;DHT22;6174;49.058;8.524;2023-06-04T19:54:17;20.40;60.10
12223;DHT22;6174;49.058;8.524;2023-06-04T19:56:45;20.40;60.70
12223;DHT22;6174;49.058;8.524;2023-06-04T19:59:12;20.30;61.70
12223;DHT22;6174;49.058;8.524;2023-06-04T20:01:39;20.20;62.60
12223;DHT22;6174;49.058;8.524;2023-06-04T20:04:06;20.10;62.90
12223;DHT22;6174;49.058;8.524;2023-06-04T20:06:33;20.00;64.00
12223;DHT22;6174;49.058;8.524;2023-06-04T20:09:00;20.30;65.80
12223;DHT22;6174;49.058;8.524;2023-06-04T20:11:27;19.80;66.30
12223;DHT22;6174;49.058;8.524;2023-06-04T20:13:55;19.60;67.70
12223;DHT22;6174;49.058;8.524;2023-06-04T20:16:21;19.50;68.20
12223;DHT22;6174;49.058;8.524;2023-06-04T20:18:48;19.50;69.50
12223;DHT22;6174;49.058;8.524;2023-06-04T20:21:15;19.80;70.10
12223;DHT22;6174;49.058;8.524;2023-06-04T20:23:42;19.40;70.60
12223;DHT22;6174;49.058;8.524;2023-06-04T20:26:11;19.30;71.10
12223;DHT22;6174;49.058;8.524;2023-06-04T20:28:37;19.20;71.90
12223;DHT22;6174;49.058;8.524;2023-06-04T20:31:05;19.20;72.10
12223;DHT22;6174;49.058;8.524;2023-06-04T20:33:32;19.10;72.30
12223;DHT22;6174;49.058;8.524;2023-06-04T20:35:59;19.10;72.40
12223;DHT22;6174;49.058;8.524;2023-06-04T20:38:26;19.10;72.90
12223;DHT22;6174;49.058;8.524;2023-06-04T20:40:53;19.00;73.10
12223;DHT22;6174;49.058;8.524;2023-06-04T20:43:20;18.80;72.30
12223;DHT22;6174;49.058;8.524;2023-06-04T20:45:47;18.90;72.60
12223;DHT22;6174;49.058;8.524;2023-06-04T20:48:15;18.90;72.50
12223;DHT22;6174;49.058;8.524;2023-06-04T20:50:42;19.20;73.30
12223;DHT22;6174;49.058;8.524;2023-06-04T20:53:09;18.80;72.90
12223;DHT22;6174;49.058;8.524;2023-06-04T20:55:35;18.70;73.40
12223;DHT22;6174;49.058;8.524;2023-06-04T20:58:02;18.60;74.10
12223;DHT22;6174;49.058;8.524;2023-06-04T21:00:29;18.60;73.40
12223;DHT22;6174;49.058;8.524;2023-06-04T21:02:56;18.50;73.30
12223;DHT22;6174;49.058;8.524;2023-06-04T21:05:24;18.40;72.80
12223;DHT22;6174;49.058;8.524;2023-06-04T21:07:50;18.50;71.20
12223;DHT22;6174;49.058;8.524;2023-06-04T21:10:17;18.70;71.60
12223;DHT22;6174;49.058;8.524;2023-06-04T21:12:44;18.40;71.10
12223;DHT22;6174;49.058;8.524;2023-06-04T21:15:11;18.30;72.70
12223;DHT22;6174;49.058;8.524;2023-06-04T21:17:37;18.30;73.50
12223;DHT22;6174;49.058;8.524;2023-06-04T21:20:05;18.20;74.30
12223;DHT22;6174;49.058;8.524;2023-06-04T21:22:33;18.20;74.40
12223;DHT22;6174;49.058;8.524;2023-06-04T21:25:00;18.10;74.30
12223;DHT22;6174;49.058;8.524;2023-06-04T21:27:27;18.00;75.50
12223;DHT22;6174;49.058;8.524;2023-06-04T21:29:54;17.90;75.70
12223;DHT22;6174;49.058;8.524;2023-06-04T21:32:20;17.90;76.20
12223;DHT22;6174;49.058;8.524;2023-06-04T21:34:47;17.90;76.70
12223;DHT22;6174;49.058;8.524;2023-06-04T21:37:14;17.80;77.20
12223;DHT22;6174;49.058;8.524;2023-06-04T21:39:42;17.70;77.50
12223;DHT22;6174;49.058;8.524;2023-06-04T21:42:09;17.70;76.50
12223;DHT22;6174;49.058;8.524;2023-06-04T21:44:36;17.60;74.10
12223;DHT22;6174;49.058;8.524;2023-06-04T21:47:02;17.60;71.90
12223;DHT22;6174;49.058;8.524;2023-06-04T21:49:29;17.60;71.10
12223;DHT22;6174;49.058;8.524;2023-06-04T21:51:56;17.60;71.90
12223;DHT22;6174;49.058;8.524;2023-06-04T21:54:23;17.60;71.20
12223;DHT22;6174;49.058;8.524;2023-06-04T21:56:51;17.60;71.40
12223;DHT22;6174;49.058;8.524;2023-06-04T21:59:17;17.60;71.70
12223;DHT22;6174;49.058;8.524;2023-06-04T22:01:45;17.60;71.60
12223;DHT22;6174;49.058;8.524;2023-06-04T22:04:12;17.60;71.90
12223;DHT22;6174;49.058;8.524;2023-06-04T22:06:39;17.50;72.40
12223;DHT22;6174;49.058;8.524;2023-06-04T22:09:06;17.50;72.20
12223;DHT22;6174;49.058;8.524;2023-06-04T22:11:32;17.90;73.90
12223;DHT22;6174;49.058;8.524;2023-06-04T22:14:00;17.30;73.50
12223;DHT22;6174;49.058;8.524;2023-06-04T22:16:27;17.10;75.30
12223;DHT22;6174;49.058;8.524;2023-06-04T22:18:54;16.90;76.50
12223;DHT22;6174;49.058;8.524;2023-06-04T22:21:21;16.80;78.20
12223;DHT22;6174;49.058;8.524;2023-06-04T22:23:48;16.80;79.60
12223;DHT22;6174;49.058;8.524;2023-06-04T22:26:15;16.90;79.20